This is the latest recevied weather packets stored in our database for station/object KB3GVC-13. If no packets are shown the sender has not sent any weather packets the latest 10 day(s).
| Time | Temp. | Humidity | Pressure | Rain* | Wind** | Luminosity | Snow |
|---|---|---|---|---|---|---|---|
| 1777477135 | 16.11° C | 55% | 1015.8 hPa | 0 mm | - | - | - |
| 1777476832 | 16.11° C | 55% | 1016 hPa | 0 mm | - | - | - |
| 1777476530 | 15.56° C | 52% | 1016.1 hPa | 0 mm | - | - | - |
| 1777476226 | 15.56° C | 55% | 1015.9 hPa | 0 mm | - | - | - |
| 1777475922 | 16.11° C | 54% | 1016 hPa | 0 mm | - | - | - |
| 1777475618 | 16.67° C | 51% | 1016.2 hPa | 0 mm | - | - | - |
| 1777475315 | 16.67° C | 55% | 1015.9 hPa | 0 mm | - | - | - |
| 1777475010 | 16.11° C | 55% | 1015.8 hPa | 0 mm | - | - | - |
| 1777474707 | 16.67° C | 51% | 1016.1 hPa | 0 mm | - | - | - |
| 1777474403 | 16.67° C | 51% | 1016.3 hPa | 0 mm | - | - | - |
| 1777474100 | 16.11° C | 53% | 1016.1 hPa | 0 mm | - | - | - |
| 1777473798 | 16.11° C | 56% | 1016 hPa | 0 mm | - | - | - |
| 1777473494 | 15.56° C | 56% | 1015.7 hPa | 0 mm | - | - | - |
| 1777473189 | 15° C | 54% | 1015.9 hPa | 0 mm | - | - | - |
| 1777472886 | 15° C | 55% | 1016 hPa | 0 mm | - | - | - |
| 1777472583 | 14.44° C | 55% | 1016.1 hPa | 0 mm | - | - | - |
| 1777472280 | 15° C | 56% | 1016.4 hPa | 0 mm | - | - | - |
| 1777471976 | 14.44° C | 56% | 1016.4 hPa | 0 mm | - | - | - |
| 1777471673 | 14.44° C | 55% | 1016.4 hPa | 0 mm | - | - | - |
| 1777471369 | 14.44° C | 54% | 1016.6 hPa | 0 mm | - | - | - |
| 1777471066 | 14.44° C | 54% | 1016.3 hPa | 0 mm | - | - | - |
| 1777470762 | 14.44° C | 54% | 1016.5 hPa | 0 mm | - | - | - |
| 1777470459 | 14.44° C | 58% | 1016.5 hPa | 0 mm | - | - | - |
| 1777470155 | 13.89° C | 56% | 1016.5 hPa | 0 mm | - | - | - |
| 1777469852 | 13.89° C | 55% | 1016.4 hPa | 0 mm | - | - | - |
* Rain latest hour (hover to see other rain measurements)
** Current wind speed in m/s (hover to see current wind gust speed)